Time;durP1;ratioP1;P1;durP2;ratioP2;P2;SDS_P1;SDS_P2;PMS_P1;PMS_P2;Temp;Humidity;BMP_temperature;BMP_pressure;BME280_temperature;BME280_humidity;BME280_pressure;Samples;Min_cycle;Max_cycle;Signal;HPM_P1;HPM_P2
2021/06/26 00:00:56;;;;;;;19.57;2.62;;;;;;;22.47;62.64;99204.47;1659731;83;20955;-70
2021/06/26 00:03:26;;;;;;;16.10;2.55;;;;;;;22.38;63.00;99202.09;1656814;86;21445;-70
2021/06/26 00:05:53;;;;;;;18.52;2.65;;;;;;;22.32;63.23;99198.11;1660498;85;22249;-69
2021/06/26 00:08:22;;;;;;;18.95;3.22;;;;;;;22.26;63.58;99194.92;1659518;85;20951;-70
2021/06/26 00:10:48;;;;;;;19.95;2.83;;;;;;;22.20;64.19;99197.13;1689109;84;21544;-70
2021/06/26 00:13:15;;;;;;;17.23;2.40;;;;;;;22.13;64.23;99193.75;1659803;85;21017;-70
2021/06/26 00:15:42;;;;;;;15.70;2.45;;;;;;;22.10;64.27;99196.55;1660113;83;21053;-70
2021/06/26 00:18:09;;;;;;;12.25;2.50;;;;;;;22.08;64.29;99189.96;1668828;84;21129;-70
2021/06/26 00:20:35;;;;;;;15.83;2.40;;;;;;;22.04;64.05;99193.36;1695624;83;20928;-69
2021/06/26 00:23:02;;;;;;;16.37;2.60;;;;;;;22.01;64.33;99189.94;1660321;86;21459;-70
2021/06/26 00:25:28;;;;;;;16.00;2.60;;;;;;;21.97;64.52;99190.55;1662573;83;21037;-71
2021/06/26 00:27:55;;;;;;;20.08;2.40;;;;;;;21.95;64.57;99194.37;1668085;84;21085;-70
2021/06/26 00:30:21;;;;;;;11.48;2.60;;;;;;;21.90;64.84;99194.77;1669954;84;21153;-70
2021/06/26 00:32:48;;;;;;;11.33;2.70;;;;;;;21.86;64.95;99200.95;1664345;85;21582;-69
2021/06/26 00:35:15;;;;;;;16.80;2.10;;;;;;;21.81;65.29;99191.58;1661127;85;21058;-69
2021/06/26 00:37:43;;;;;;;9.68;2.20;;;;;;;21.75;65.69;99189.18;1664565;85;21059;-69
2021/06/26 00:40:11;;;;;;;11.40;2.33;;;;;;;21.69;66.09;99179.60;1629078;86;21098;-70
2021/06/26 00:42:40;;;;;;;11.57;2.65;;;;;;;21.65;66.39;99171.02;1698557;83;21770;-69
2021/06/26 00:45:09;;;;;;;13.03;2.30;;;;;;;21.58;66.61;99166.23;1701294;83;20998;-71
2021/06/26 00:47:35;;;;;;;11.97;2.60;;;;;;;21.49;66.73;99167.22;1693862;83;21016;-69
2021/06/26 00:50:03;;;;;;;17.17;2.67;;;;;;;21.42;67.03;99164.42;1655978;85;21601;-69
2021/06/26 00:52:30;;;;;;;12.68;2.42;;;;;;;21.38;67.22;99167.81;1659532;85;20978;-69
2021/06/26 00:54:56;;;;;;;12.78;2.65;;;;;;;21.34;67.45;99169.23;1634984;86;21182;-69
2021/06/26 00:57:23;;;;;;;14.73;2.67;;;;;;;21.34;67.82;99171.22;1660861;83;21002;-69
2021/06/26 00:59:49;;;;;;;8.83;1.80;;;;;;;21.33;68.24;99166.84;1637868;86;20943;-69
2021/06/26 01:02:16;;;;;;;10.18;2.10;;;;;;;21.31;67.96;99174.21;1668967;84;21026;-69
2021/06/26 01:04:42;;;;;;;17.45;2.70;;;;;;;21.27;68.28;99174.80;1670274;84;21148;-70
2021/06/26 01:07:08;;;;;;;14.85;2.27;;;;;;;21.19;68.42;99180.73;1666709;85;21960;-70
2021/06/26 01:09:35;;;;;;;12.58;2.87;;;;;;;21.08;69.08;99191.27;1661009;83;21110;-70
2021/06/26 01:12:02;;;;;;;11.78;1.82;;;;;;;21.02;69.29;99183.08;1673826;85;20999;-69
2021/06/26 01:14:29;;;;;;;16.60;2.27;;;;;;;21.00;70.02;99186.06;1687360;83;21060;-69
2021/06/26 01:17:07;;;;;;;12.23;2.15;;;;;;;20.95;71.31;99179.47;1658351;85;20987;-69
2021/06/26 01:19:35;;;;;;;10.58;2.22;;;;;;;20.89;72.02;99174.88;1658035;83;21601;-70
2021/06/26 01:22:08;;;;;;;10.88;2.22;;;;;;;20.82;72.46;99164.28;1650416;86;20868;-69
2021/06/26 01:24:35;;;;;;;6.62;2.62;;;;;;;20.76;72.78;99169.47;1650520;86;21003;-69
2021/06/26 01:27:02;;;;;;;5.92;2.25;;;;;;;20.69;73.29;99167.45;1666258;84;21538;-70
2021/06/26 01:29:32;;;;;;;14.10;2.20;;;;;;;20.65;73.47;99167.23;1693277;84;20924;-70
2021/06/26 01:31:59;;;;;;;11.30;2.17;;;;;;;20.61;73.98;99169.21;1680768;83;21170;-70
2021/06/26 01:34:25;;;;;;;12.90;2.60;;;;;;;20.54;74.34;99158.02;1680294;85;20943;-70
2021/06/26 01:36:52;;;;;;;13.60;3.15;;;;;;;20.49;74.98;99152.82;1679572;83;20864;-70
2021/06/26 01:39:19;;;;;;;7.30;2.27;;;;;;;20.44;75.53;99153.40;1681079;83;21572;-70
2021/06/26 01:41:45;;;;;;;11.88;2.33;;;;;;;20.39;75.89;99150.98;1679845;84;20943;-69
2021/06/26 01:44:12;;;;;;;12.20;2.45;;;;;;;20.36;76.26;99143.97;1683516;85;21212;-69
2021/06/26 01:46:38;;;;;;;7.65;2.15;;;;;;;20.32;76.41;99143.15;1679708;85;21466;-69
2021/06/26 01:49:09;;;;;;;9.50;2.50;;;;;;;20.29;76.58;99143.34;1678519;85;21011;-70
2021/06/26 01:51:36;;;;;;;10.35;2.30;;;;;;;20.28;77.00;99143.72;1681793;83;20975;-69
2021/06/26 01:54:05;;;;;;;13.08;2.52;;;;;;;20.27;76.88;99138.74;1680230;84;20939;-70
2021/06/26 01:56:32;;;;;;;12.28;2.52;;;;;;;20.23;76.95;99133.75;1679237;83;21179;-71
2021/06/26 01:58:59;;;;;;;14.43;3.10;;;;;;;20.20;77.11;99126.79;1680870;84;20939;-69
2021/06/26 02:01:26;;;;;;;13.55;3.27;;;;;;;20.17;77.39;99121.40;1638582;86;21549;-69
2021/06/26 02:03:53;;;;;;;7.78;2.17;;;;;;;20.13;77.40;99115.01;1663488;85;20982;-69
2021/06/26 02:06:19;;;;;;;10.65;2.33;;;;;;;20.11;77.39;99116.80;1670944;85;21015;-71
2021/06/26 02:08:46;;;;;;;7.12;2.45;;;;;;;20.09;77.58;99110.02;1636008;86;21119;-70
2021/06/26 02:11:12;;;;;;;13.38;2.98;;;;;;;20.08;77.80;99113.98;1659689;85;21007;-69
2021/06/26 02:13:39;;;;;;;10.82;3.05;;;;;;;20.06;77.96;99119.15;1669553;85;21562;-69
2021/06/26 02:16:07;;;;;;;11.50;2.72;;;;;;;20.05;77.95;99119.74;1663269;84;21026;-69
2021/06/26 02:18:33;;;;;;;11.85;2.80;;;;;;;20.06;78.33;99124.13;1662963;83;21177;-69
2021/06/26 02:21:00;;;;;;;13.58;3.50;;;;;;;20.06;78.29;99118.55;1660106;85;21555;-70
2021/06/26 02:23:27;;;;;;;14.40;3.27;;;;;;;20.07;78.19;99121.55;1666706;85;21150;-70
2021/06/26 02:25:55;;;;;;;9.05;2.95;;;;;;;20.12;78.03;99124.55;1662777;85;21526;-69
2021/06/26 02:28:21;;;;;;;12.20;3.33;;;;;;;20.17;77.67;99118.61;1684043;83;21479;-69
2021/06/26 02:30:48;;;;;;;14.38;3.10;;;;;;;20.22;77.41;99110.48;1660771;84;20991;-69
2021/06/26 02:33:14;;;;;;;8.85;2.98;;;;;;;20.26;77.36;99107.08;1662757;85;21118;-69
2021/06/26 02:35:41;;;;;;;12.80;2.83;;;;;;;20.30;77.34;99112.88;1633111;85;21276;-69
2021/06/26 02:38:07;;;;;;;12.20;3.05;;;;;;;20.36;77.32;99110.52;1658719;85;20982;-69
2021/06/26 02:40:34;;;;;;;10.65;3.65;;;;;;;20.41;77.45;99110.17;1660131;85;21005;-69
2021/06/26 02:43:00;;;;;;;8.90;3.33;;;;;;;20.47;77.68;99116.97;1660277;84;21018;-69
2021/06/26 02:45:26;;;;;;;15.85;3.37;;;;;;;20.53;77.56;99111.81;1655489;84;21529;-69
2021/06/26 02:47:53;;;;;;;14.58;3.20;;;;;;;20.59;77.45;99107.45;1660535;84;21017;-69
2021/06/26 02:50:19;;;;;;;11.60;3.87;;;;;;;20.64;77.46;99107.88;1668401;83;20964;-69
2021/06/26 02:52:47;;;;;;;16.55;3.55;;;;;;;20.71;77.40;99103.71;1694252;82;20927;-69
2021/06/26 02:55:13;;;;;;;13.32;3.60;;;;;;;20.79;77.27;99103.73;1679274;84;21549;-73
2021/06/26 02:57:40;;;;;;;13.00;3.65;;;;;;;20.86;77.33;99096.14;1686819;84;21102;-69
2021/06/26 03:00:09;;;;;;;15.93;3.35;;;;;;;20.92;77.27;99095.96;1669510;85;21489;-70
2021/06/26 03:02:36;;;;;;;12.98;4.03;;;;;;;20.95;77.21;99091.58;1688867;84;20979;-71
2021/06/26 03:05:05;;;;;;;15.45;3.42;;;;;;;20.99;77.29;99097.38;1680878;83;21059;-70
2021/06/26 03:07:31;;;;;;;9.00;3.40;;;;;;;21.04;77.34;99095.59;1687031;84;20952;-70
2021/06/26 03:09:58;;;;;;;7.47;3.72;;;;;;;21.10;77.10;99100.98;1665301;83;21112;-70
2021/06/26 03:12:24;;;;;;;17.42;3.77;;;;;;;21.18;77.05;99099.59;1681412;83;21518;-69
2021/06/26 03:14:51;;;;;;;11.88;3.35;;;;;;;21.24;76.60;99093.25;1680245;84;21101;-71
2021/06/26 03:17:17;;;;;;;10.10;4.20;;;;;;;21.33;76.43;99089.46;1681689;84;21491;-73
2021/06/26 03:19:44;;;;;;;15.50;3.83;;;;;;;21.41;76.17;99086.05;1660910;85;21160;-72
2021/06/26 03:22:11;;;;;;;13.98;4.03;;;;;;;21.49;75.96;99080.66;1691402;84;21781;-72
2021/06/26 03:24:37;;;;;;;15.93;4.05;;;;;;;21.55;75.38;99087.44;1658352;85;20907;-71
2021/06/26 03:27:05;;;;;;;13.40;4.22;;;;;;;21.64;75.02;99087.83;1679312;84;21593;-72
2021/06/26 03:29:32;;;;;;;13.35;3.75;;;;;;;21.72;74.57;99088.61;1663154;85;21625;-70
2021/06/26 03:31:58;;;;;;;17.98;4.62;;;;;;;21.78;74.30;99088.41;1652204;85;20952;-70
2021/06/26 03:34:25;;;;;;;12.13;4.03;;;;;;;21.85;74.08;99088.39;1677326;83;21109;-70
2021/06/26 03:36:51;;;;;;;13.18;4.22;;;;;;;21.92;73.41;99093.17;1660093;85;21055;-70
2021/06/26 03:39:18;;;;;;;9.53;3.65;;;;;;;22.00;73.16;99097.52;1677351;82;20947;-69
2021/06/26 03:41:45;;;;;;;9.80;4.35;;;;;;;22.06;72.95;99090.34;1656019;84;20971;-69
2021/06/26 03:44:11;;;;;;;16.65;4.58;;;;;;;22.17;72.77;99087.52;1668246;85;21201;-77
2021/06/26 03:46:38;;;;;;;19.57;4.40;;;;;;;22.24;72.43;99089.69;1689531;82;21135;-71
2021/06/26 03:49:05;;;;;;;15.00;4.37;;;;;;;22.29;71.78;99089.27;1667057;83;21035;-76
2021/06/26 03:51:31;;;;;;;12.88;4.50;;;;;;;22.34;72.14;99089.45;1679861;85;20939;-71
2021/06/26 03:53:58;;;;;;;18.42;5.20;;;;;;;22.39;71.74;99089.03;1673083;84;21220;-68
2021/06/26 03:56:25;;;;;;;13.32;4.25;;;;;;;22.45;71.40;99089.41;1681157;83;21081;-69
2021/06/26 03:58:51;;;;;;;11.57;4.37;;;;;;;22.49;71.03;99093.78;1655627;85;21761;-71
2021/06/26 04:01:18;;;;;;;207.30;16.48;;;;;;;22.53;70.94;99079.78;1688509;84;20963;-71
2021/06/26 04:03:46;;;;;;;15.23;5.47;;;;;;;22.57;70.65;99077.13;1664525;84;20963;-69
2021/06/26 04:06:13;;;;;;;24.05;5.67;;;;;;;22.65;70.61;99074.50;1664606;85;20994;-75
2021/06/26 04:08:40;;;;;;;22.42;6.12;;;;;;;22.72;70.31;99072.27;1679240;84;21033;-73
2021/06/26 04:11:07;;;;;;;10.55;4.50;;;;;;;22.78;70.36;99069.83;1656257;85;21759;-74
2021/06/26 04:13:33;;;;;;;19.27;5.50;;;;;;;22.83;69.96;99067.43;1674101;84;21022;-75
2021/06/26 04:16:00;;;;;;;15.53;4.40;;;;;;;22.89;69.37;99066.39;1660129;85;21581;-76
2021/06/26 04:18:26;;;;;;;15.13;5.80;;;;;;;22.97;69.32;99063.73;1682725;84;20943;-79
2021/06/26 04:20:53;;;;;;;13.43;5.00;;;;;;;23.03;69.13;99057.91;1661895;85;20959;-77
2021/06/26 04:23:19;;;;;;;12.07;4.67;;;;;;;23.10;68.96;99057.05;1684110;83;21730;-74
2021/06/26 04:25:48;;;;;;;21.85;4.78;;;;;;;23.18;68.86;99052.36;1655670;85;20990;-74
2021/06/26 04:28:15;;;;;;;12.70;4.87;;;;;;;23.26;68.29;99052.49;1678917;83;20974;-74
2021/06/26 04:30:41;;;;;;;14.53;5.45;;;;;;;23.32;67.90;99036.84;1657480;84;21073;-73
2021/06/26 04:33:09;;;;;;;14.38;5.08;;;;;;;23.39;67.66;99035.98;1694884;82;21442;-76
2021/06/26 04:35:35;;;;;;;12.28;4.35;;;;;;;23.44;67.64;99032.73;1678319;84;21120;-74
2021/06/26 04:38:02;;;;;;;15.05;4.20;;;;;;;23.52;68.70;99032.86;1678007;85;21102;-73
2021/06/26 04:40:28;;;;;;;11.43;4.22;;;;;;;23.61;67.64;99036.00;1678539;85;20991;-74
2021/06/26 04:42:56;;;;;;;19.25;4.70;;;;;;;23.69;67.97;99033.29;1678169;84;21101;-74
2021/06/26 04:45:23;;;;;;;7.85;3.75;;;;;;;23.80;67.77;99031.77;1679002;85;21042;-72
2021/06/26 04:47:49;;;;;;;14.55;4.50;;;;;;;23.93;67.47;99035.64;1678630;85;21252;-67
2021/06/26 04:50:17;;;;;;;10.35;4.55;;;;;;;24.04;66.74;99034.91;1678984;84;21065;-72
2021/06/26 04:52:45;;;;;;;12.58;4.30;;;;;;;24.13;66.58;99040.02;1677230;84;21106;-70
2021/06/26 04:55:11;;;;;;;9.33;4.50;;;;;;;24.20;66.77;99035.72;1682491;83;21770;-72
2021/06/26 04:57:38;;;;;;;9.33;4.10;;;;;;;24.32;66.76;99044.98;1681719;84;21577;-69
2021/06/26 05:00:06;;;;;;;15.30;4.83;;;;;;;24.44;66.35;99044.23;1680876;85;21048;-70
2021/06/26 05:02:33;;;;;;;10.35;4.87;;;;;;;24.56;66.23;99042.27;1680928;85;20943;-74
2021/06/26 05:05:00;;;;;;;18.32;4.40;;;;;;;24.68;66.27;99043.91;1680704;83;20919;-70
2021/06/26 05:07:27;;;;;;;12.47;5.05;;;;;;;24.81;66.00;99044.73;1679668;84;20982;-70
2021/06/26 05:09:55;;;;;;;9.08;4.25;;;;;;;24.94;65.41;99048.52;1674386;85;21566;-66
2021/06/26 05:12:22;;;;;;;11.15;4.55;;;;;;;25.06;65.50;99048.56;1669056;83;22322;-69
2021/06/26 05:14:49;;;;;;;12.98;4.62;;;;;;;25.16;65.49;99054.63;1672516;83;20936;-69
2021/06/26 05:17:15;;;;;;;8.60;4.45;;;;;;;25.28;65.69;99052.62;1658197;85;21506;-69
2021/06/26 05:19:44;;;;;;;15.20;4.22;;;;;;;25.38;64.61;99052.26;1656517;83;20990;-66
2021/06/26 05:22:10;;;;;;;11.68;4.83;;;;;;;25.49;64.61;99055.65;1662116;83;21439;-70
2021/06/26 05:24:37;;;;;;;12.33;4.00;;;;;;;25.59;64.15;99061.08;1655621;84;21565;-68
2021/06/26 05:27:05;;;;;;;12.10;4.90;;;;;;;25.68;63.97;99059.77;1658696;84;21048;-70
2021/06/26 05:29:33;;;;;;;12.90;4.30;;;;;;;25.77;63.45;99061.41;1629990;85;21006;-72
2021/06/26 05:31:59;;;;;;;14.95;5.42;;;;;;;25.88;63.33;99064.81;1633000;85;21080;-63
2021/06/26 05:34:26;;;;;;;23.98;11.88;;;;;;;25.97;62.87;99070.67;1664341;84;20958;-63
2021/06/26 05:36:52;;;;;;;22.35;11.45;;;;;;;26.04;61.61;99069.71;1665102;84;21111;-72
2021/06/26 05:39:19;;;;;;;10.58;6.37;;;;;;;26.07;60.47;99061.81;1658295;84;21082;-71
2021/06/26 05:41:46;;;;;;;10.88;4.90;;;;;;;26.07;61.16;99059.80;1675573;85;20928;-70
2021/06/26 05:44:12;;;;;;;13.58;7.25;;;;;;;26.11;61.38;99060.52;1661457;83;20955;-69
2021/06/26 05:46:39;;;;;;;16.52;6.53;;;;;;;26.18;61.42;99058.18;1657731;84;21533;-72
2021/06/26 05:49:05;;;;;;;10.88;5.25;;;;;;;26.24;60.14;99056.45;1659421;83;21807;-72
2021/06/26 05:51:32;;;;;;;12.53;4.95;;;;;;;26.28;60.47;99067.81;1667915;85;20981;-69
2021/06/26 05:53:58;;;;;;;10.25;4.15;;;;;;;26.32;60.85;99062.14;1659134;83;21026;-70
2021/06/26 05:56:25;;;;;;;9.28;4.10;;;;;;;26.38;61.37;99063.22;1656410;84;21018;-68
2021/06/26 05:58:52;;;;;;;11.57;4.00;;;;;;;26.47;59.19;99064.84;1634048;84;22311;-69
2021/06/26 06:01:19;;;;;;;14.50;4.00;;;;;;;26.50;59.62;99070.21;1663157;83;21615;-67
2021/06/26 06:03:47;;;;;;;9.35;4.00;;;;;;;26.56;59.79;99067.06;1670874;84;21067;-60
2021/06/26 06:06:14;;;;;;;10.65;4.47;;;;;;;26.63;59.81;99073.30;1666858;84;20986;-60
2021/06/26 06:08:42;;;;;;;9.45;4.28;;;;;;;26.74;60.48;99073.08;1668525;85;21640;-60
2021/06/26 06:11:08;;;;;;;17.45;5.00;;;;;;;26.83;59.46;99070.45;1666778;85;21166;-61
2021/06/26 06:13:35;;;;;;;13.00;4.95;;;;;;;26.89;58.70;99072.94;1686281;84;21149;-59
2021/06/26 06:16:02;;;;;;;12.33;4.67;;;;;;;26.94;58.90;99065.38;1675905;85;21637;-59
2021/06/26 06:18:28;;;;;;;11.97;5.03;;;;;;;27.03;59.59;99071.84;1668676;84;21054;-59
2021/06/26 06:20:54;;;;;;;13.95;5.47;;;;;;;27.12;59.78;99079.07;1663284;83;21010;-60
2021/06/26 06:23:21;;;;;;;8.78;4.60;;;;;;;27.21;58.98;99073.59;1667379;85;20971;-61
2021/06/26 06:25:48;;;;;;;12.40;4.50;;;;;;;27.31;57.85;99075.97;1673589;83;21143;-61
2021/06/26 06:28:14;;;;;;;13.62;5.03;;;;;;;27.39;59.30;99075.97;1644041;83;21714;-61
2021/06/26 06:30:41;;;;;;;11.78;4.25;;;;;;;27.51;59.09;99073.06;1641878;85;21082;-62
2021/06/26 06:33:08;;;;;;;9.18;4.42;;;;;;;27.61;59.58;99075.64;1655122;84;21780;-65
2021/06/26 06:35:34;;;;;;;19.62;5.03;;;;;;;27.74;59.12;99067.84;1662380;85;21116;-65
2021/06/26 06:38:03;;;;;;;10.50;4.25;;;;;;;27.82;58.02;99068.63;1642003;85;21152;-65
2021/06/26 06:40:29;;;;;;;7.65;4.80;;;;;;;27.86;57.12;99058.03;1670204;84;21477;-65
2021/06/26 06:42:56;;;;;;;16.87;4.78;;;;;;;27.89;56.12;99062.79;1653581;85;20993;-64
2021/06/26 06:45:23;;;;;;;11.55;4.40;;;;;;;27.93;56.58;99058.46;1642270;84;21189;-65
2021/06/26 06:47:49;;;;;;;13.28;4.50;;;;;;;27.99;57.03;99061.53;1664815;85;21102;-66
2021/06/26 06:50:16;;;;;;;11.50;4.30;;;;;;;28.05;56.04;99055.52;1661326;84;21798;-67
2021/06/26 06:52:42;;;;;;;18.80;4.30;;;;;;;28.09;56.47;99059.03;1656401;84;20952;-66
2021/06/26 06:55:09;;;;;;;18.37;5.47;;;;;;;28.15;56.21;99060.07;1665517;85;21004;-66
2021/06/26 06:57:35;;;;;;;11.68;4.42;;;;;;;28.26;56.20;99054.95;1655947;84;20963;-66
2021/06/26 07:00:01;;;;;;;13.72;4.28;;;;;;;28.36;55.29;99045.34;1663872;85;20932;-66
2021/06/26 07:02:28;;;;;;;11.38;4.17;;;;;;;28.44;56.06;99050.16;1665138;84;21140;-66
2021/06/26 07:04:54;;;;;;;11.93;4.08;;;;;;;28.51;55.65;99040.86;1654626;86;21593;-66
2021/06/26 07:07:21;;;;;;;13.50;4.70;;;;;;;28.56;53.61;99040.31;1658085;85;20899;-66
2021/06/26 07:09:48;;;;;;;16.90;4.40;;;;;;;28.62;55.18;99044.78;1676409;83;20999;-64
2021/06/26 07:12:14;;;;;;;7.95;4.05;;;;;;;28.69;54.41;99042.36;1664410;85;21585;-65
2021/06/26 07:14:43;;;;;;;7.80;3.98;;;;;;;28.74;55.03;99042.59;1590715;86;20849;-67
2021/06/26 07:17:09;;;;;;;10.85;4.60;;;;;;;28.83;53.74;99050.42;1673032;85;21531;-66
2021/06/26 07:19:37;;;;;;;15.72;4.58;;;;;;;28.93;53.54;99043.61;1614483;85;21011;-67
2021/06/26 07:22:04;;;;;;;9.68;4.58;;;;;;;29.03;54.86;99044.52;1659721;83;21025;-67
2021/06/26 07:24:30;;;;;;;11.95;4.40;;;;;;;29.17;55.45;99042.65;1664167;84;20943;-67
2021/06/26 07:26:57;;;;;;;15.43;5.30;;;;;;;29.34;55.66;99046.92;1667944;85;21124;-65
2021/06/26 07:29:24;;;;;;;9.10;4.53;;;;;;;29.53;54.59;99040.21;1659089;85;21047;-67
2021/06/26 07:31:51;;;;;;;16.42;4.42;;;;;;;29.65;52.48;99044.25;1663153;83;21196;-70
2021/06/26 07:34:18;;;;;;;14.07;4.72;;;;;;;29.71;52.14;99044.46;1661603;83;21010;-72
2021/06/26 07:36:45;;;;;;;10.90;4.08;;;;;;;29.80;52.44;99039.68;1661869;83;21087;-72
2021/06/26 07:39:11;;;;;;;13.68;4.83;;;;;;;29.90;51.76;99037.09;1661979;85;21178;-68
2021/06/26 07:41:38;;;;;;;11.30;4.45;;;;;;;30.00;52.39;99033.75;1670222;84;20946;-71
2021/06/26 07:44:05;;;;;;;15.55;4.90;;;;;;;30.09;51.49;99029.54;1655785;84;21007;-73
2021/06/26 07:46:32;;;;;;;11.45;4.70;;;;;;;30.19;50.96;99030.39;1657585;83;21021;-70
2021/06/26 07:48:59;;;;;;;14.18;5.05;;;;;;;30.30;51.01;99030.00;1660055;84;21026;-68
2021/06/26 07:51:26;;;;;;;14.63;4.85;;;;;;;30.43;50.84;99028.67;1680409;83;21125;-67
2021/06/26 07:53:52;;;;;;;19.12;5.45;;;;;;;30.55;50.74;99029.84;1686601;85;20994;-66
2021/06/26 07:56:19;;;;;;;12.13;4.97;;;;;;;30.66;49.95;99031.63;1679247;83;21066;-66
2021/06/26 07:58:46;;;;;;;18.65;5.15;;;;;;;30.80;50.70;99023.98;1679929;85;20891;-64
2021/06/26 08:01:15;;;;;;;20.85;7.35;;;;;;;30.95;49.30;99020.58;1680302;83;20978;-67
2021/06/26 08:03:41;;;;;;;19.07;6.92;;;;;;;31.07;50.03;99028.19;1683287;85;21155;-68
2021/06/26 08:06:08;;;;;;;11.05;5.12;;;;;;;31.18;48.96;99024.31;1683202;83;20887;-66
2021/06/26 08:08:34;;;;;;;9.25;4.87;;;;;;;31.29;48.29;99023.21;1680522;85;20942;-67
2021/06/26 08:11:01;;;;;;;14.45;4.30;;;;;;;31.33;48.12;99018.81;1679021;83;21055;-69
2021/06/26 08:13:28;;;;;;;13.98;4.47;;;;;;;31.34;48.04;99017.55;1680891;83;21486;-65
2021/06/26 08:15:56;;;;;;;18.65;5.55;;;;;;;31.35;47.82;99012.83;1681888;83;20947;-65
2021/06/26 08:18:22;;;;;;;13.72;4.75;;;;;;;31.46;48.92;99008.13;1681210;83;20927;-68
2021/06/26 08:20:49;;;;;;;9.05;3.90;;;;;;;31.68;50.04;99006.60;1679544;84;21064;-66
2021/06/26 08:23:16;;;;;;;15.43;4.55;;;;;;;31.89;48.16;99004.84;1678796;84;20995;-66
2021/06/26 08:25:43;;;;;;;14.93;5.08;;;;;;;32.04;46.60;99006.56;1680719;85;21019;-68
2021/06/26 08:28:09;;;;;;;13.43;4.15;;;;;;;32.20;46.46;99016.02;1680932;83;21110;-67
2021/06/26 08:30:36;;;;;;;9.03;3.90;;;;;;;32.43;45.70;99007.61;1679855;84;20993;-67
2021/06/26 08:33:02;;;;;;;9.95;4.17;;;;;;;32.61;45.54;99006.77;1634892;85;20939;-68
2021/06/26 08:35:29;;;;;;;14.90;4.47;;;;;;;32.85;44.29;98999.75;1680503;85;21124;-68
2021/06/26 08:37:56;;;;;;;15.90;5.25;;;;;;;33.10;43.33;98989.97;1680378;84;20943;-72
2021/06/26 08:40:23;;;;;;;12.33;4.60;;;;;;;33.40;44.23;99004.51;1679918;84;21847;-66
2021/06/26 08:42:53;;;;;;;7.85;4.55;;;;;;;33.72;44.53;99001.41;1680247;83;21435;-69
2021/06/26 08:45:20;;;;;;;20.60;4.35;;;;;;;33.95;43.38;99002.66;1680836;85;20900;-68
2021/06/26 08:47:51;;;;;;;12.82;4.47;;;;;;;34.04;42.01;98995.46;1681098;85;21100;-65
2021/06/26 08:50:19;;;;;;;13.70;4.40;;;;;;;34.20;42.35;99000.51;1678201;84;20942;-71
2021/06/26 08:52:46;;;;;;;45.95;7.87;;;;;;;34.25;40.99;98996.34;1664501;84;21144;-64
2021/06/26 08:55:13;;;;;;;15.28;4.67;;;;;;;34.24;41.17;98997.61;1660061;85;20904;-67
2021/06/26 08:57:41;;;;;;;13.38;4.95;;;;;;;34.22;41.11;99000.80;1664460;83;21042;-71
2021/06/26 09:00:15;;;;;;;12.85;5.22;;;;;;;34.18;42.27;98990.24;1636106;85;20926;-62
2021/06/26 09:02:41;;;;;;;13.13;4.83;;;;;;;34.15;42.09;98995.49;1662759;84;20995;-70
2021/06/26 09:05:10;;;;;;;15.65;4.85;;;;;;;34.18;41.42;98995.94;1672239;85;21137;-62
2021/06/26 09:07:39;;;;;;;7.78;4.35;;;;;;;34.32;41.64;98989.50;1659466;85;20975;-61
2021/06/26 09:10:17;;;;;;;12.10;4.60;;;;;;;34.37;41.75;98988.80;1660354;83;20919;-61
2021/06/26 09:12:45;;;;;;;16.65;4.15;;;;;;;34.24;40.98;98983.38;1666337;85;21007;-61
2021/06/26 09:15:27;;;;;;;12.88;5.10;;;;;;;34.29;42.18;98987.59;1656993;85;20864;-61
2021/06/26 09:17:56;;;;;;;12.55;4.50;;;;;;;34.42;41.92;98981.78;1673152;85;21258;-60
2021/06/26 09:20:36;;;;;;;10.60;4.22;;;;;;;34.60;40.72;98976.51;1624067;86;21160;-61
2021/06/26 09:23:04;;;;;;;10.15;4.50;;;;;;;34.86;40.21;98971.59;1675830;85;20952;-61
2021/06/26 09:25:35;;;;;;;13.15;5.30;;;;;;;35.14;41.44;98973.44;1665037;84;21450;-61
2021/06/26 09:28:11;;;;;;;12.50;4.57;;;;;;;35.38;40.71;98969.10;1660868;85;21506;-63
2021/06/26 09:30:42;;;;;;;7.62;4.20;;;;;;;35.54;38.38;98956.33;1657939;84;21258;-61
2021/06/26 09:33:20;;;;;;;14.68;4.78;;;;;;;35.65;38.05;98964.25;1663198;83;21096;-61
2021/06/26 09:36:05;;;;;;;16.10;4.90;;;;;;;35.65;38.51;98962.81;1661488;84;20947;-64
2021/06/26 09:38:34;;;;;;;11.45;4.22;;;;;;;35.73;38.65;98962.52;1633750;86;21065;-64
2021/06/26 09:41:16;;;;;;;8.55;4.00;;;;;;;35.93;38.09;98960.27;1635589;85;21542;-62
2021/06/26 09:43:44;;;;;;;11.45;3.90;;;;;;;36.08;37.38;98958.73;1634808;85;21155;-63
2021/06/26 09:46:17;;;;;;;10.78;4.00;;;;;;;36.21;37.25;98956.27;1657995;85;21581;-63
2021/06/26 09:48:53;;;;;;;11.15;3.80;;;;;;;36.36;37.48;98962.03;1655949;85;21464;-63
2021/06/26 09:51:23;;;;;;;10.00;4.22;;;;;;;36.56;37.28;98958.27;1689635;84;21034;-64
2021/06/26 09:53:58;;;;;;;9.55;4.53;;;;;;;36.60;35.77;98957.39;1679919;84;21114;-65
2021/06/26 09:56:41;;;;;;;8.70;4.53;;;;;;;36.55;35.75;98955.92;1689196;82;21580;-65
2021/06/26 09:59:08;;;;;;;6.85;4.62;;;;;;;36.65;34.85;98957.30;1689107;84;20908;-65
2021/06/26 10:01:36;;;;;;;9.23;4.20;;;;;;;36.77;36.84;98956.77;1665082;85;20915;-74
2021/06/26 10:04:05;;;;;;;10.78;4.30;;;;;;;36.90;35.97;98951.39;1677790;85;21030;-65
2021/06/26 10:06:34;;;;;;;18.20;4.35;;;;;;;37.09;36.63;98947.45;1668044;84;20868;-64
2021/06/26 10:09:04;;;;;;;16.80;5.42;;;;;;;37.16;37.40;98949.19;1662479;85;21738;-64
2021/06/26 10:11:32;;;;;;;8.95;4.05;;;;;;;37.08;36.54;98950.95;1659018;83;20994;-64
2021/06/26 10:14:01;;;;;;;9.75;4.50;;;;;;;37.24;36.65;98943.14;1689184;82;21494;-64
2021/06/26 10:16:30;;;;;;;12.07;4.10;;;;;;;37.27;35.84;98940.69;1682084;83;20919;-63
2021/06/26 10:19:01;;;;;;;7.97;3.85;;;;;;;37.31;35.57;98938.36;1673393;84;21036;-66
2021/06/26 10:21:28;;;;;;;;;;;;;;;37.21;35.85;98934.15;1660882;85;21165;-65
2021/06/26 10:23:58;;;;;;;9.58;4.25;;;;;;;36.87;35.13;98929.53;1657788;85;20131;-63
2021/06/26 10:26:26;;;;;;;7.15;4.33;;;;;;;36.46;34.93;98924.02;1658493;83;21077;-64
2021/06/26 10:28:59;;;;;;;9.83;4.33;;;;;;;36.12;36.52;98917.23;1661682;84;21055;-70
2021/06/26 10:31:34;;;;;;;8.88;4.03;;;;;;;35.91;36.75;98910.02;1664395;84;20956;-79
2021/06/26 10:37:09;;;;;;;9.73;4.50;;;;;;;35.16;36.39;98902.41;1625974;86;20982;-67
2021/06/26 10:39:35;;;;;;;29.42;5.78;;;;;;;34.58;40.54;98902.12;1596493;89;21060;-73
2021/06/26 10:42:08;;;;;;;7.85;4.28;;;;;;;34.19;42.26;98897.83;1579907;88;38765;-67
2021/06/26 10:44:50;;;;;;;;;;;;;;;33.90;41.58;98882.34;1629768;86;21604;-66
2021/06/26 10:47:35;;;;;;;8.53;4.85;;;;;;;33.57;42.07;98873.16;1632869;86;21222;-67
2021/06/26 10:50:20;;;;;;;9.95;4.85;;;;;;;33.26;46.06;98878.64;1642774;86;21609;-66
2021/06/26 10:52:54;;;;;;;15.72;4.72;;;;;;;33.04;45.66;98881.80;1611617;87;21024;-66
2021/06/26 10:55:37;;;;;;;15.65;4.87;;;;;;;32.88;43.95;98899.95;1658997;86;21437;-66
2021/06/26 10:58:05;;;;;;;14.60;4.37;;;;;;;32.75;44.81;98918.61;1664183;85;21160;-66
2021/06/26 11:00:38;;;;;;;11.20;4.15;;;;;;;32.32;41.21;98920.72;1660796;85;21159;-65
2021/06/26 11:03:06;;;;;;;18.15;4.87;;;;;;;31.58;42.61;98928.39;1642552;86;20953;-67
2021/06/26 11:05:34;;;;;;;19.35;7.05;;;;;;;30.86;44.30;98925.78;1631251;84;20909;-66
2021/06/26 11:08:03;;;;;;;20.50;6.22;;;;;;;30.33;46.40;98919.45;1629510;86;21044;-67
2021/06/26 11:10:31;;;;;;;31.45;7.08;;;;;;;29.90;47.85;98912.60;1626689;86;20925;-66
2021/06/26 11:12:59;;;;;;;16.50;6.17;;;;;;;29.60;49.69;98925.27;1631110;85;21031;-67
2021/06/26 11:15:29;;;;;;;16.57;4.97;;;;;;;29.32;50.60;98930.69;1646664;86;21053;-79
2021/06/26 11:17:56;;;;;;;10.30;4.53;;;;;;;29.04;50.38;98927.43;1648143;86;21030;-68
2021/06/26 11:20:22;;;;;;;35.80;10.08;;;;;;;28.71;51.16;98933.34;1631489;86;20968;-68
2021/06/26 11:22:55;;;;;;;16.32;5.03;;;;;;;28.42;51.54;98930.64;1661871;85;20925;-67
2021/06/26 11:25:31;;;;;;;10.72;4.33;;;;;;;28.10;50.81;98947.76;1657241;84;21163;-67
2021/06/26 11:28:11;;;;;;;9.50;5.17;;;;;;;27.60;51.97;98969.74;1655674;85;21004;-65
2021/06/26 11:30:39;;;;;;;14.93;5.42;;;;;;;26.92;53.37;98986.16;1660009;85;21016;-65
2021/06/26 11:33:06;;;;;;;11.12;5.58;;;;;;;26.29;55.69;99006.09;1661570;85;20977;-78